createdAt,value
2023-04-02T00:00:53.003Z,994
2023-04-02T00:01:53.044Z,994
2023-04-02T00:02:53.060Z,994
2023-04-02T00:03:53.100Z,994
2023-04-02T00:04:52.994Z,994
2023-04-02T00:05:53.011Z,994
2023-04-02T00:06:52.999Z,994
2023-04-02T00:07:53.012Z,994
2023-04-02T00:08:52.999Z,994
2023-04-02T00:09:53.006Z,994
2023-04-02T00:10:53.049Z,994
2023-04-02T00:11:52.982Z,994
2023-04-02T00:12:53.063Z,994
2023-04-02T00:13:53.031Z,994
2023-04-02T00:14:53.004Z,994
2023-04-02T00:15:53.007Z,994
2023-04-02T00:16:53.101Z,994
2023-04-02T00:17:53.047Z,994
2023-04-02T00:18:52.998Z,994
2023-04-02T00:19:53.002Z,994
2023-04-02T00:20:53.013Z,994
2023-04-02T00:21:53.063Z,994
2023-04-02T00:22:52.999Z,994
2023-04-02T00:23:53.020Z,994
2023-04-02T00:24:53.014Z,994
2023-04-02T00:25:53.023Z,994
2023-04-02T00:26:53.008Z,994
2023-04-02T00:27:52.997Z,994
2023-04-02T00:28:53.015Z,994
2023-04-02T00:29:53.039Z,994
2023-04-02T00:30:53.073Z,994
2023-04-02T00:31:53.092Z,994
2023-04-02T00:32:53.105Z,994
2023-04-02T00:33:53.020Z,994
2023-04-02T00:34:52.993Z,994
2023-04-02T00:35:53.006Z,994
2023-04-02T00:36:53.009Z,994
2023-04-02T00:37:53.016Z,994
2023-04-02T00:38:53.012Z,994
2023-04-02T00:39:53.044Z,994
2023-04-02T00:40:53.034Z,994
2023-04-02T00:41:53.021Z,994
2023-04-02T00:42:52.997Z,994
2023-04-02T00:43:53.003Z,994
2023-04-02T00:44:53.017Z,994
2023-04-02T00:45:53.027Z,994
2023-04-02T00:46:53.031Z,994
2023-04-02T00:47:53.212Z,994
2023-04-02T00:48:53.225Z,995
2023-04-02T00:49:52.998Z,994
2023-04-02T00:50:52.991Z,994
2023-04-02T00:51:53.017Z,994
2023-04-02T00:52:53.028Z,995
2023-04-02T00:53:53.002Z,995
2023-04-02T00:54:53.017Z,995
2023-04-02T00:55:53.046Z,995
2023-04-02T00:56:53.037Z,995
2023-04-02T00:57:53.006Z,995
2023-04-02T00:58:53.006Z,995
2023-04-02T00:59:53.010Z,995
2023-04-02T01:00:53.003Z,995
2023-04-02T01:01:53.199Z,995
2023-04-02T01:02:53.103Z,995
2023-04-02T01:03:53.117Z,995
2023-04-02T01:04:52.993Z,995
2023-04-02T01:05:53.006Z,995
2023-04-02T01:06:53.027Z,995
2023-04-02T01:07:53.010Z,995
2023-04-02T01:08:53.030Z,995
2023-04-02T01:09:53.012Z,995
2023-04-02T01:10:53.056Z,995
2023-04-02T01:11:53.136Z,995
2023-04-02T01:12:53.013Z,995
2023-04-02T01:13:53.014Z,995
2023-04-02T01:14:53.024Z,995
2023-04-02T01:15:53.029Z,995
2023-04-02T01:16:53.004Z,995
2023-04-02T01:17:53.042Z,995
2023-04-02T01:18:53.033Z,995
2023-04-02T01:19:53.052Z,995
2023-04-02T01:20:53.015Z,995
2023-04-02T01:21:53.164Z,995
2023-04-02T01:22:53.006Z,995
2023-04-02T01:23:53.008Z,995
2023-04-02T01:24:53.011Z,995
2023-04-02T01:25:53.002Z,995
2023-04-02T01:26:53.019Z,995
2023-04-02T01:27:53.001Z,995
2023-04-02T01:28:53.016Z,995
2023-04-02T01:29:53.017Z,995
2023-04-02T01:30:53.048Z,995
2023-04-02T01:31:53.011Z,995
2023-04-02T01:32:53.093Z,995
2023-04-02T01:34:53.026Z,995
2023-04-02T01:36:53.009Z,995
2023-04-02T01:37:53.089Z,995
2023-04-02T01:38:53.034Z,995
2023-04-02T01:39:53.017Z,995
2023-04-02T01:40:53.024Z,995
2023-04-02T01:41:53.011Z,995
2023-04-02T01:42:53.045Z,995
2023-04-02T01:43:52.991Z,995
2023-04-02T01:44:53.026Z,995
2023-04-02T01:45:53.024Z,995
2023-04-02T01:46:53.049Z,995
2023-04-02T01:47:53.076Z,995
2023-04-02T01:48:53.009Z,995
2023-04-02T01:49:53.009Z,995
2023-04-02T01:50:53.022Z,995
2023-04-02T01:51:53.023Z,995
2023-04-02T01:52:53.042Z,995
2023-04-02T01:53:53.002Z,995
2023-04-02T01:54:53.016Z,995
2023-04-02T01:55:53.118Z,995
2023-04-02T01:56:53.039Z,995
2023-04-02T01:57:53.001Z,995
2023-04-02T01:58:53.010Z,995
2023-04-02T01:59:53.019Z,995
2023-04-02T02:00:53.065Z,995
2023-04-02T02:01:53.012Z,995
2023-04-02T02:02:53.040Z,996
2023-04-02T02:03:53.164Z,996
2023-04-02T02:04:53.035Z,995
2023-04-02T02:05:52.997Z,996
2023-04-02T02:06:53.018Z,996
2023-04-02T02:07:53.012Z,996
2023-04-02T02:08:53.050Z,996
2023-04-02T02:09:53.009Z,996
2023-04-02T02:10:53.000Z,996
2023-04-02T02:11:53.020Z,996
2023-04-02T02:12:53.029Z,996
2023-04-02T02:13:53.019Z,996
2023-04-02T02:14:53.013Z,996
2023-04-02T02:15:53.017Z,996
2023-04-02T02:16:53.014Z,996
2023-04-02T02:17:53.031Z,996
2023-04-02T02:18:53.005Z,996
2023-04-02T02:19:53.009Z,996
2023-04-02T02:20:53.042Z,996
2023-04-02T02:21:53.049Z,996
2023-04-02T02:22:53.021Z,996
2023-04-02T02:23:53.048Z,996
2023-04-02T02:24:53.060Z,996
2023-04-02T02:25:53.017Z,996
2023-04-02T02:26:53.018Z,996
2023-04-02T02:27:53.007Z,996
2023-04-02T02:28:53.024Z,996
2023-04-02T02:29:53.016Z,996
2023-04-02T02:30:53.046Z,996
2023-04-02T02:31:53.132Z,996
2023-04-02T02:32:54.351Z,996
2023-04-02T02:33:53.068Z,996
2023-04-02T02:34:52.993Z,996
2023-04-02T02:35:53.143Z,996
2023-04-02T02:36:53.126Z,996
2023-04-02T02:37:53.006Z,996
2023-04-02T02:38:54.389Z,996
2023-04-02T02:39:53.001Z,996
2023-04-02T02:40:53.003Z,996
2023-04-02T02:41:53.009Z,996
2023-04-02T02:42:53.016Z,996
2023-04-02T02:43:53.013Z,996
2023-04-02T02:44:53.139Z,996
2023-04-02T02:45:53.050Z,996
2023-04-02T02:46:53.002Z,996
2023-04-02T02:47:53.115Z,996
2023-04-02T02:48:52.994Z,996
2023-04-02T02:49:53.003Z,996
2023-04-02T02:50:53.008Z,996
2023-04-02T02:51:53.181Z,996
2023-04-02T02:52:53.177Z,996
2023-04-02T02:53:53.023Z,997
2023-04-02T02:54:52.998Z,997
2023-04-02T02:55:53.006Z,997
2023-04-02T02:56:53.039Z,997
2023-04-02T02:57:53.104Z,997
2023-04-02T02:58:53.112Z,997
2023-04-02T02:59:53.017Z,997
2023-04-02T03:00:53.016Z,997
2023-04-02T03:01:53.201Z,997
2023-04-02T03:02:53.146Z,997
2023-04-02T03:03:53.187Z,997
2023-04-02T03:04:53.148Z,997
2023-04-02T03:05:53.003Z,997
2023-04-02T03:06:53.005Z,997
2023-04-02T03:07:53.026Z,997
2023-04-02T03:08:53.046Z,997
2023-04-02T03:09:53.051Z,997
2023-04-02T03:10:53.214Z,997
2023-04-02T03:11:53.110Z,997
2023-04-02T03:12:53.027Z,997
2023-04-02T03:13:53.009Z,997
2023-04-02T03:14:53.013Z,997
2023-04-02T03:15:53.048Z,997
2023-04-02T03:16:53.018Z,997
2023-04-02T03:17:53.051Z,997
2023-04-02T03:18:53.053Z,997
2023-04-02T03:19:53.021Z,997
2023-04-02T03:20:53.011Z,997
2023-04-02T03:21:52.998Z,997
2023-04-02T03:22:53.029Z,997
2023-04-02T03:23:53.273Z,997
2023-04-02T03:24:53.393Z,997
2023-04-02T03:25:53.007Z,997
2023-04-02T03:26:53.023Z,997
2023-04-02T03:27:53.009Z,997
2023-04-02T03:28:53.005Z,997
2023-04-02T03:29:53.002Z,997
2023-04-02T03:30:53.049Z,997
2023-04-02T03:31:52.998Z,997
2023-04-02T03:33:00.278Z,997
2023-04-02T03:33:53.019Z,997
2023-04-02T03:34:53.019Z,997
2023-04-02T03:35:53.038Z,997
2023-04-02T03:36:53.389Z,997
2023-04-02T03:37:53.315Z,997
2023-04-02T03:38:53.025Z,997
2023-04-02T03:39:53.272Z,997
2023-04-02T03:40:53.062Z,997
2023-04-02T03:41:53.020Z,997
2023-04-02T03:42:53.018Z,997
2023-04-02T03:43:53.009Z,997
2023-04-02T03:44:53.010Z,997
2023-04-02T03:45:53.011Z,997
2023-04-02T03:46:53.016Z,997
2023-04-02T03:47:53.062Z,997
2023-04-02T03:48:53.008Z,997
2023-04-02T03:49:53.043Z,998
2023-04-02T03:50:53.297Z,998
2023-04-02T03:51:53.019Z,997
2023-04-02T03:52:53.353Z,998
2023-04-02T03:53:53.008Z,998
2023-04-02T03:54:53.011Z,998
2023-04-02T03:55:53.020Z,998
2023-04-02T03:56:53.063Z,998
2023-04-02T03:57:53.016Z,998
2023-04-02T03:58:53.011Z,998
2023-04-02T03:59:53.035Z,998
2023-04-02T04:00:53.049Z,998
2023-04-02T04:01:53.008Z,998
2023-04-02T04:02:53.042Z,998
2023-04-02T04:03:53.409Z,998
2023-04-02T04:04:53.038Z,998
2023-04-02T04:05:53.009Z,998
2023-04-02T04:06:53.019Z,998
2023-04-02T04:07:53.023Z,998
2023-04-02T04:08:53.028Z,998
2023-04-02T04:09:53.059Z,998
2023-04-02T04:10:53.080Z,998
2023-04-02T04:11:53.012Z,998
2023-04-02T04:12:53.004Z,998
2023-04-02T04:13:53.008Z,998
2023-04-02T04:14:53.031Z,998
2023-04-02T04:15:53.007Z,998
2023-04-02T04:16:53.078Z,998
2023-04-02T04:17:53.104Z,998
2023-04-02T04:18:53.008Z,998
2023-04-02T04:19:53.010Z,998
2023-04-02T04:20:53.026Z,998
2023-04-02T04:21:53.001Z,998
2023-04-02T04:22:53.019Z,998
2023-04-02T04:23:53.007Z,998
2023-04-02T04:24:53.014Z,998
2023-04-02T04:25:52.997Z,998
2023-04-02T04:26:53.007Z,998
2023-04-02T04:27:53.016Z,998
2023-04-02T04:28:53.014Z,998
2023-04-02T04:29:53.008Z,998
2023-04-02T04:30:53.011Z,998
2023-04-02T04:31:53.045Z,998
2023-04-02T04:32:47.722Z,998
2023-04-02T04:33:53.000Z,998
2023-04-02T04:34:52.993Z,998
2023-04-02T04:35:53.072Z,998
2023-04-02T04:36:53.034Z,998
2023-04-02T04:37:53.002Z,998
2023-04-02T04:38:53.009Z,999
2023-04-02T04:39:53.016Z,999
2023-04-02T04:40:53.016Z,999
2023-04-02T04:41:52.999Z,999
2023-04-02T04:42:53.061Z,999
2023-04-02T04:43:53.040Z,999
2023-04-02T04:44:53.009Z,999
2023-04-02T04:45:52.999Z,999
2023-04-02T04:46:53.014Z,999
2023-04-02T04:47:53.073Z,999
2023-04-02T04:48:53.008Z,999
2023-04-02T04:49:53.017Z,999
2023-04-02T04:50:53.022Z,999
2023-04-02T04:51:53.068Z,999
2023-04-02T04:52:53.010Z,999
2023-04-02T04:53:53.022Z,999
2023-04-02T04:54:53.014Z,999
2023-04-02T04:55:53.020Z,999
2023-04-02T04:56:53.047Z,999
2023-04-02T04:57:53.084Z,999
2023-04-02T04:58:52.999Z,999
2023-04-02T04:59:53.006Z,999
2023-04-02T05:00:53.019Z,999
2023-04-02T05:01:53.052Z,999
2023-04-02T05:02:53.042Z,999
2023-04-02T05:03:53.002Z,999
2023-04-02T05:04:53.081Z,999
2023-04-02T05:05:53.019Z,999
2023-04-02T05:06:53.005Z,999
2023-04-02T05:07:53.004Z,999
2023-04-02T05:08:53.028Z,999
2023-04-02T05:09:53.015Z,999
2023-04-02T05:10:53.015Z,999
2023-04-02T05:11:53.026Z,999
2023-04-02T05:12:53.029Z,999
2023-04-02T05:13:53.062Z,999
2023-04-02T05:14:53.042Z,999
2023-04-02T05:15:53.047Z,999
2023-04-02T05:16:53.034Z,999
2023-04-02T05:17:53.062Z,999
2023-04-02T05:18:53.304Z,999
2023-04-02T05:19:53.025Z,999
2023-04-02T05:20:53.017Z,999
2023-04-02T05:21:53.009Z,999
2023-04-02T05:22:53.007Z,999
2023-04-02T05:23:53.007Z,1000
2023-04-02T05:24:53.021Z,1000
2023-04-02T05:25:53.018Z,1000
2023-04-02T05:26:53.014Z,1000
2023-04-02T05:27:53.002Z,1000
2023-04-02T05:28:53.266Z,1000
2023-04-02T05:29:53.015Z,1000
2023-04-02T05:30:53.066Z,1000
2023-04-02T05:31:53.015Z,1000
2023-04-02T05:32:53.065Z,1000
2023-04-02T05:33:53.025Z,1000
2023-04-02T05:34:53.002Z,1000
2023-04-02T05:35:53.060Z,1000
2023-04-02T05:36:53.013Z,1000
2023-04-02T05:37:52.998Z,1000
2023-04-02T05:38:53.009Z,1000
2023-04-02T05:39:52.983Z,1000
2023-04-02T05:40:52.988Z,1000
2023-04-02T05:41:53.016Z,1000
2023-04-02T05:42:53.065Z,1000
2023-04-02T05:43:52.986Z,1000
2023-04-02T05:44:53.051Z,1000
2023-04-02T05:45:53.042Z,1000
2023-04-02T05:46:53.145Z,1000
2023-04-02T05:47:53.112Z,1000
2023-04-02T05:48:53.010Z,1000
2023-04-02T05:49:53.010Z,1000
2023-04-02T05:50:53.047Z,1000
2023-04-02T05:51:53.009Z,1000
2023-04-02T05:52:53.024Z,1000
2023-04-02T05:53:53.011Z,1000
2023-04-02T05:54:53.031Z,1000
2023-04-02T05:55:53.051Z,1000
2023-04-02T05:56:53.053Z,1000
2023-04-02T05:58:10.403Z,1000
2023-04-02T05:58:53.120Z,1000
2023-04-02T05:59:53.006Z,1000
2023-04-02T06:00:53.019Z,1000
2023-04-02T06:01:53.070Z,1000
2023-04-02T06:02:53.228Z,1000
2023-04-02T06:03:53.062Z,1000
2023-04-02T06:04:53.019Z,1000
2023-04-02T06:05:53.050Z,1000
2023-04-02T06:06:53.061Z,1000
2023-04-02T06:07:52.998Z,1000
2023-04-02T06:08:53.014Z,1001
2023-04-02T06:09:52.990Z,1001
2023-04-02T06:10:53.021Z,1001
2023-04-02T06:11:53.033Z,1001
2023-04-02T06:12:52.990Z,1001
2023-04-02T06:13:52.997Z,1001
2023-04-02T06:14:53.021Z,1001
2023-04-02T06:15:53.080Z,1001
2023-04-02T06:16:53.048Z,1001
2023-04-02T06:17:53.016Z,1001
2023-04-02T06:18:53.347Z,1001
2023-04-02T06:20:53.048Z,1001
2023-04-02T06:21:53.018Z,1001
2023-04-02T06:22:52.999Z,1001
2023-04-02T06:23:53.022Z,1001
2023-04-02T06:24:52.999Z,1001
2023-04-02T06:25:54.025Z,1001
2023-04-02T06:26:53.021Z,1001
2023-04-02T06:27:53.005Z,1001
2023-04-02T06:28:53.008Z,1001
2023-04-02T06:29:53.010Z,1001
2023-04-02T06:30:53.025Z,1001
2023-04-02T06:31:53.274Z,1001
2023-04-02T06:32:53.062Z,1001
2023-04-02T06:33:53.020Z,1001
2023-04-02T06:34:52.995Z,1001
2023-04-02T06:35:53.033Z,1001
2023-04-02T06:36:53.017Z,1001
2023-04-02T06:37:53.007Z,1001
2023-04-02T06:38:53.013Z,1001
2023-04-02T06:39:53.014Z,1001
2023-04-02T06:40:53.047Z,1001
2023-04-02T06:41:53.023Z,1001
2023-04-02T06:42:52.998Z,1001
2023-04-02T06:43:52.993Z,1001
2023-04-02T06:44:53.009Z,1001
2023-04-02T06:45:53.409Z,1001
2023-04-02T06:46:53.072Z,1001
2023-04-02T06:47:53.025Z,1001
2023-04-02T06:48:53.057Z,1002
2023-04-02T06:49:53.034Z,1002
2023-04-02T06:50:53.014Z,1002
2023-04-02T06:51:52.998Z,1002
2023-04-02T06:52:53.013Z,1002
2023-04-02T06:53:53.012Z,1002
2023-04-02T06:54:53.010Z,1002
2023-04-02T06:55:53.013Z,1002
2023-04-02T06:56:53.040Z,1002
2023-04-02T06:57:53.014Z,1002
2023-04-02T06:58:53.015Z,1002
2023-04-02T06:59:53.216Z,1002
2023-04-02T07:00:53.099Z,1002
2023-04-02T07:01:53.088Z,1002
2023-04-02T07:02:53.047Z,1002
2023-04-02T07:03:53.007Z,1002
2023-04-02T07:04:53.059Z,1002
2023-04-02T07:05:53.046Z,1002
2023-04-02T07:06:53.008Z,1002
2023-04-02T07:07:52.989Z,1002
2023-04-02T07:08:52.988Z,1002
2023-04-02T07:09:53.007Z,1002
2023-04-02T07:10:53.016Z,1002
2023-04-02T07:11:52.982Z,1002
2023-04-02T07:12:52.996Z,1002
2023-04-02T07:13:53.007Z,1002
2023-04-02T07:14:53.005Z,1002
2023-04-02T07:15:53.025Z,1002
2023-04-02T07:16:53.019Z,1002
2023-04-02T07:17:53.026Z,1002
2023-04-02T07:18:53.007Z,1002
2023-04-02T07:19:53.016Z,1002
2023-04-02T07:20:53.004Z,1002
2023-04-02T07:21:53.058Z,1002
2023-04-02T07:22:52.992Z,1002
2023-04-02T07:23:52.982Z,1002
2023-04-02T07:24:52.998Z,1003
2023-04-02T07:25:53.025Z,1002
2023-04-02T07:26:53.007Z,1002
2023-04-02T07:27:52.987Z,1002
2023-04-02T07:28:53.030Z,1003
2023-04-02T07:29:53.001Z,1003
2023-04-02T07:30:52.998Z,1003
2023-04-02T07:31:53.088Z,1003
2023-04-02T07:32:53.036Z,1003
2023-04-02T07:33:52.987Z,1003
2023-04-02T07:34:53.000Z,1003
2023-04-02T07:35:53.023Z,1003
2023-04-02T07:36:52.976Z,1003
2023-04-02T07:37:53.010Z,1003
2023-04-02T07:38:53.008Z,1003
2023-04-02T07:39:52.990Z,1003
2023-04-02T07:40:52.979Z,1003
2023-04-02T07:41:53.006Z,1003
2023-04-02T07:42:53.120Z,1003
2023-04-02T07:43:52.999Z,1003
2023-04-02T07:44:52.992Z,1003
2023-04-02T07:45:52.999Z,1003
2023-04-02T07:46:53.038Z,1003
2023-04-02T07:47:53.019Z,1003
2023-04-02T07:48:52.991Z,1003
2023-04-02T07:50:53.003Z,1003
2023-04-02T07:51:53.011Z,1003
2023-04-02T07:52:53.074Z,1003
2023-04-02T07:53:53.013Z,1003
2023-04-02T07:54:53.016Z,1003
2023-04-02T07:55:52.995Z,1003
2023-04-02T07:56:53.069Z,1003
2023-04-02T07:57:53.008Z,1003
2023-04-02T07:58:53.010Z,1003
2023-04-02T08:00:53.118Z,1003
2023-04-02T08:01:53.031Z,1003
2023-04-02T08:02:53.087Z,1003
2023-04-02T08:03:54.407Z,1003
2023-04-02T08:04:52.997Z,1003
2023-04-02T08:05:53.005Z,1003
2023-04-02T08:06:53.008Z,1003
2023-04-02T08:07:53.011Z,1003
2023-04-02T08:08:53.002Z,1003
2023-04-02T08:09:53.001Z,1003
2023-04-02T08:10:53.022Z,1003
2023-04-02T08:11:53.000Z,1003
2023-04-02T08:12:52.989Z,1003
2023-04-02T08:13:53.005Z,1003
2023-04-02T08:14:53.053Z,1003
2023-04-02T08:15:53.000Z,1003
2023-04-02T08:16:53.134Z,1003
2023-04-02T08:17:53.060Z,1004
2023-04-02T08:18:53.011Z,1004
2023-04-02T08:19:55.183Z,1004
2023-04-02T08:20:53.019Z,1004
2023-04-02T08:21:53.008Z,1004
2023-04-02T08:22:53.005Z,1004
2023-04-02T08:23:53.061Z,1004
2023-04-02T08:24:52.994Z,1004
2023-04-02T08:25:52.997Z,1004
2023-04-02T08:26:52.995Z,1004
2023-04-02T08:27:53.041Z,1004
2023-04-02T08:28:53.015Z,1004
2023-04-02T08:29:52.991Z,1004
2023-04-02T08:30:53.049Z,1004
2023-04-02T08:31:53.010Z,1004
2023-04-02T08:32:53.028Z,1004
2023-04-02T08:33:53.014Z,1004
2023-04-02T08:34:52.998Z,1004
2023-04-02T08:35:53.090Z,1004
2023-04-02T08:36:53.008Z,1004
2023-04-02T08:37:52.999Z,1004
2023-04-02T08:38:52.997Z,1004
2023-04-02T08:39:53.010Z,1004
2023-04-02T08:40:52.992Z,1004
2023-04-02T08:41:52.987Z,1004
2023-04-02T08:42:53.003Z,1004
2023-04-02T08:43:53.013Z,1004
2023-04-02T08:44:53.061Z,1004
2023-04-02T08:45:53.031Z,1004
2023-04-02T08:46:52.996Z,1004
2023-04-02T08:47:53.051Z,1004
2023-04-02T08:48:52.998Z,1004
2023-04-02T08:49:53.011Z,1004
2023-04-02T08:50:52.991Z,1004
2023-04-02T08:51:52.985Z,1004
2023-04-02T08:52:53.007Z,1004
2023-04-02T08:53:52.997Z,1004
2023-04-02T08:54:53.004Z,1004
2023-04-02T08:55:52.993Z,1004
2023-04-02T08:56:53.150Z,1004
2023-04-02T08:57:53.081Z,1004
2023-04-02T08:58:53.038Z,1004
2023-04-02T08:59:52.992Z,1005
2023-04-02T09:00:53.005Z,1004
2023-04-02T09:01:53.009Z,1005
2023-04-02T09:02:53.017Z,1004
2023-04-02T09:03:52.980Z,1004
2023-04-02T09:04:53.336Z,1005
2023-04-02T09:05:53.000Z,1005
2023-04-02T09:06:52.999Z,1005
2023-04-02T09:07:52.993Z,1005
2023-04-02T09:08:53.006Z,1005
2023-04-02T09:09:52.999Z,1005
2023-04-02T09:10:52.997Z,1005
2023-04-02T09:11:52.998Z,1005
2023-04-02T09:12:53.000Z,1005
2023-04-02T09:13:53.007Z,1005
2023-04-02T09:14:52.993Z,1005
2023-04-02T09:15:52.993Z,1005
2023-04-02T09:16:52.997Z,1005
2023-04-02T09:17:54.523Z,1005
2023-04-02T09:18:52.981Z,1005
2023-04-02T09:19:52.984Z,1005
2023-04-02T09:20:52.999Z,1005
2023-04-02T09:21:53.004Z,1005
2023-04-02T09:22:53.018Z,1005
2023-04-02T09:23:52.998Z,1005
2023-04-02T09:24:52.999Z,1005
2023-04-02T09:26:03.399Z,1005
2023-04-02T09:26:52.989Z,1005
2023-04-02T09:27:53.016Z,1005
2023-04-02T09:28:52.994Z,1005
2023-04-02T09:29:53.000Z,1005
2023-04-02T09:30:53.004Z,1005
2023-04-02T09:31:53.031Z,1005
2023-04-02T09:32:53.005Z,1005
2023-04-02T09:33:53.012Z,1005
2023-04-02T09:34:53.000Z,1005
2023-04-02T09:35:53.063Z,1005
2023-04-02T09:36:52.997Z,1005
2023-04-02T09:37:52.996Z,1005
2023-04-02T09:38:52.988Z,1005
2023-04-02T09:39:53.014Z,1005
2023-04-02T09:40:53.050Z,1005
2023-04-02T09:42:04.596Z,1005
2023-04-02T09:42:53.008Z,1005
2023-04-02T09:43:52.986Z,1005
2023-04-02T09:44:53.005Z,1005
2023-04-02T09:45:53.001Z,1005
2023-04-02T09:46:53.063Z,1005
2023-04-02T09:47:53.038Z,1005
2023-04-02T09:48:53.003Z,1005
2023-04-02T09:49:53.017Z,1005
2023-04-02T09:50:53.009Z,1005
2023-04-02T09:52:53.006Z,1006
2023-04-02T09:53:52.996Z,1005
2023-04-02T09:54:53.005Z,1006
2023-04-02T09:55:52.994Z,1006
2023-04-02T09:56:53.039Z,1006
2023-04-02T09:57:52.985Z,1006
2023-04-02T09:59:53.001Z,1006
2023-04-02T10:00:53.054Z,1006
2023-04-02T10:01:52.987Z,1006
2023-04-02T10:02:53.053Z,1006
2023-04-02T10:03:53.041Z,1006
2023-04-02T10:04:53.009Z,1006
2023-04-02T10:05:53.012Z,1006
2023-04-02T10:06:52.987Z,1006
2023-04-02T10:07:53.018Z,1006
2023-04-02T10:08:53.004Z,1006
2023-04-02T10:09:53.001Z,1006
2023-04-02T10:10:53.010Z,1006
2023-04-02T10:11:52.996Z,1006
2023-04-02T10:12:52.989Z,1006
2023-04-02T10:13:53.032Z,1006
2023-04-02T10:14:53.011Z,1006
2023-04-02T10:15:53.013Z,1006
2023-04-02T10:16:53.167Z,1006
2023-04-02T10:17:53.037Z,1006
2023-04-02T10:18:53.003Z,1006
2023-04-02T10:19:52.991Z,1006
2023-04-02T10:20:53.009Z,1006
2023-04-02T10:21:52.978Z,1006
2023-04-02T10:22:53.015Z,1006
2023-04-02T10:23:52.997Z,1006
2023-04-02T10:24:52.980Z,1006
2023-04-02T10:25:52.998Z,1006
2023-04-02T10:26:53.012Z,1006
2023-04-02T10:27:53.005Z,1006
2023-04-02T10:28:52.992Z,1006
2023-04-02T10:29:53.022Z,1006
2023-04-02T10:30:53.009Z,1006
2023-04-02T10:31:53.007Z,1006
2023-04-02T10:32:53.119Z,1006
2023-04-02T10:33:53.036Z,1006
2023-04-02T10:34:52.998Z,1006
2023-04-02T10:35:53.013Z,1007
2023-04-02T10:36:53.008Z,1006
2023-04-02T10:37:53.019Z,1006
2023-04-02T10:38:53.011Z,1006
2023-04-02T10:39:53.019Z,1007
2023-04-02T10:40:54.003Z,1006
2023-04-02T10:41:53.007Z,1007
2023-04-02T10:43:52.985Z,1007
2023-04-02T10:44:53.000Z,1007
2023-04-02T10:45:53.000Z,1007
2023-04-02T10:46:53.012Z,1007
2023-04-02T10:47:53.126Z,1007
2023-04-02T10:48:53.011Z,1007
2023-04-02T10:49:53.094Z,1007
2023-04-02T10:50:52.995Z,1007
2023-04-02T10:51:53.001Z,1007
2023-04-02T10:52:54.105Z,1007
2023-04-02T10:53:54.276Z,1007
2023-04-02T10:54:52.999Z,1007
2023-04-02T10:56:53.088Z,1007
2023-04-02T10:57:53.043Z,1007
2023-04-02T10:58:53.850Z,1007
2023-04-02T10:59:53.004Z,1007
2023-04-02T11:01:53.027Z,1007
2023-04-02T11:02:53.068Z,1007
2023-04-02T11:03:53.073Z,1007
2023-04-02T11:04:53.939Z,1007
2023-04-02T11:05:52.980Z,1007
2023-04-02T11:06:58.113Z,1007
2023-04-02T11:07:53.005Z,1007
2023-04-02T11:08:53.051Z,1007
2023-04-02T11:09:53.003Z,1007
2023-04-02T11:10:52.979Z,1007
2023-04-02T11:11:53.009Z,1007
2023-04-02T11:12:53.029Z,1007
2023-04-02T11:13:52.983Z,1007
2023-04-02T11:14:53.000Z,1007
2023-04-02T11:15:53.071Z,1007
2023-04-02T11:16:53.015Z,1007
2023-04-02T11:17:53.016Z,1007
2023-04-02T11:18:53.015Z,1007
2023-04-02T11:19:53.024Z,1007
2023-04-02T11:20:52.984Z,1007
2023-04-02T11:21:59.295Z,1007
2023-04-02T11:22:52.979Z,1007
2023-04-02T11:23:52.987Z,1007
2023-04-02T11:24:52.997Z,1007
2023-04-02T11:26:53.022Z,1007
2023-04-02T11:27:53.020Z,1007
2023-04-02T11:28:52.981Z,1007
2023-04-02T11:29:52.993Z,1007
2023-04-02T11:30:52.997Z,1007
2023-04-02T11:31:53.086Z,1007
2023-04-02T11:32:53.017Z,1007
2023-04-02T11:33:52.984Z,1007
2023-04-02T11:35:03.420Z,1007
2023-04-02T11:35:53.034Z,1007
2023-04-02T11:36:53.052Z,1007
2023-04-02T11:37:52.985Z,1007
2023-04-02T11:38:53.067Z,1007
2023-04-02T11:39:53.001Z,1007
2023-04-02T11:40:53.026Z,1007
2023-04-02T11:41:53.007Z,1007
2023-04-02T11:42:52.993Z,1007
2023-04-02T11:43:52.984Z,1007
2023-04-02T11:44:53.005Z,1007
2023-04-02T11:45:53.559Z,1007
2023-04-02T11:46:53.042Z,1007
2023-04-02T11:47:53.047Z,1007
2023-04-02T11:48:53.041Z,1007
2023-04-02T11:49:52.979Z,1008
2023-04-02T11:50:52.980Z,1008
2023-04-02T11:51:59.377Z,1008
2023-04-02T11:52:53.006Z,1008
2023-04-02T11:54:00.181Z,1008
2023-04-02T11:54:52.996Z,1008
2023-04-02T11:55:53.000Z,1008
2023-04-02T11:56:53.052Z,1008
2023-04-02T11:57:52.981Z,1008
2023-04-02T11:58:52.969Z,1008
2023-04-02T11:59:53.001Z,1008
2023-04-02T12:00:53.023Z,1008
2023-04-02T12:02:53.029Z,1008
2023-04-02T12:03:52.987Z,1008
2023-04-02T12:04:53.008Z,1008
2023-04-02T12:05:52.987Z,1008
2023-04-02T12:06:52.994Z,1008
2023-04-02T12:07:52.989Z,1008
2023-04-02T12:08:58.029Z,1008
2023-04-02T12:09:52.978Z,1008
2023-04-02T12:10:53.041Z,1008
2023-04-02T12:11:53.020Z,1008
2023-04-02T12:12:52.985Z,1008
2023-04-02T12:13:52.998Z,1008
2023-04-02T12:14:52.995Z,1008
2023-04-02T12:15:53.012Z,1008
2023-04-02T12:16:53.021Z,1008
2023-04-02T12:17:53.013Z,1008
2023-04-02T12:18:52.992Z,1008
2023-04-02T12:19:53.020Z,1008
2023-04-02T12:20:52.975Z,1008
2023-04-02T12:21:53.041Z,1008
2023-04-02T12:22:52.998Z,1008
2023-04-02T12:23:53.151Z,1008
2023-04-02T12:24:52.987Z,1008
2023-04-02T12:25:52.987Z,1008
2023-04-02T12:26:53.018Z,1008
2023-04-02T12:27:52.995Z,1008
2023-04-02T12:28:53.063Z,1008
2023-04-02T12:29:52.996Z,1008
2023-04-02T12:30:53.047Z,1008
2023-04-02T12:31:53.463Z,1008
2023-04-02T12:32:53.107Z,1008
2023-04-02T12:33:53.018Z,1008
2023-04-02T12:34:52.987Z,1008
2023-04-02T12:35:53.029Z,1008
2023-04-02T12:36:53.009Z,1008
2023-04-02T12:37:53.009Z,1008
2023-04-02T12:38:53.015Z,1008
2023-04-02T12:39:52.981Z,1008
2023-04-02T12:40:52.988Z,1008
2023-04-02T12:41:53.004Z,1008
2023-04-02T12:42:53.003Z,1008
2023-04-02T12:43:53.036Z,1008
2023-04-02T12:44:53.243Z,1008
2023-04-02T12:45:53.017Z,1008
2023-04-02T12:46:53.003Z,1008
2023-04-02T12:47:52.988Z,1008
2023-04-02T12:48:52.981Z,1008
2023-04-02T12:49:52.990Z,1008
2023-04-02T12:50:52.995Z,1008
2023-04-02T12:51:52.991Z,1008
2023-04-02T12:52:52.992Z,1008
2023-04-02T12:53:47.688Z,1008
2023-04-02T12:54:53.018Z,1008
2023-04-02T12:55:53.016Z,1008
2023-04-02T12:56:52.976Z,1008
2023-04-02T12:57:52.973Z,1008
2023-04-02T12:58:52.962Z,1008
2023-04-02T12:59:52.988Z,1008
2023-04-02T13:00:52.973Z,1008
2023-04-02T13:01:53.018Z,1008
2023-04-02T13:02:53.014Z,1008
2023-04-02T13:03:53.029Z,1008
2023-04-02T13:04:52.998Z,1008
2023-04-02T13:05:53.021Z,1008
2023-04-02T13:06:52.998Z,1009
2023-04-02T13:07:52.989Z,1008
2023-04-02T13:08:53.044Z,1008
2023-04-02T13:09:52.968Z,1008
2023-04-02T13:10:52.993Z,1008
2023-04-02T13:11:52.981Z,1009
2023-04-02T13:12:53.003Z,1009
2023-04-02T13:13:52.976Z,1009
2023-04-02T13:14:53.045Z,1009
2023-04-02T13:15:53.029Z,1008
2023-04-02T13:16:52.999Z,1009
2023-04-02T13:17:53.017Z,1009
2023-04-02T13:18:53.000Z,1009
2023-04-02T13:19:52.973Z,1009
2023-04-02T13:20:52.987Z,1009
2023-04-02T13:21:52.993Z,1009
2023-04-02T13:22:52.975Z,1009
2023-04-02T13:23:52.980Z,1009
2023-04-02T13:24:52.962Z,1009
2023-04-02T13:25:52.985Z,1009
2023-04-02T13:26:52.988Z,1009
2023-04-02T13:27:52.970Z,1009
2023-04-02T13:28:52.998Z,1009
2023-04-02T13:29:53.056Z,1009
2023-04-02T13:30:53.006Z,1009
2023-04-02T13:31:53.347Z,1009
2023-04-02T13:32:53.012Z,1009
2023-04-02T13:33:53.006Z,1009
2023-04-02T13:34:52.951Z,1009
2023-04-02T13:35:53.002Z,1009
2023-04-02T13:36:53.035Z,1009
2023-04-02T13:37:53.040Z,1009
2023-04-02T13:38:52.981Z,1009
2023-04-02T13:39:53.015Z,1009
2023-04-02T13:40:52.962Z,1009
2023-04-02T13:41:52.998Z,1009